To NAV CANADA Home Page Login to a new session Search on AWWS site Feedback and Comments Disclaimer Vers la page française équivalente Tips FAQ What's new on the site To the Forecasts and Observations / NOTAM section To "File a Flight Plan" website Publications and other links Update of the User's profile FIC Telephone Numbers My Weather Data Folder Route Weather Data Regional Weather Data Local Weather Data To the Forecasts and Observations / NOTAM section
Request Generated 05/24/2016 at 17:27:41 UTC . Weather information available at that time is displayed.

METAR/TAF

EDMONTON/EDMONTON INTL/AB    

METAR CYEG 241700Z 18006KT 140V200 15SM BKN027 11/06 A2986 RMK SC7
SLP127 DENSITY ALT 2500FT=
METAR CYEG 241600Z 15004KT 120V180 15SM FEW015 FEW024 11/07 A2986 RMK
SC1SC1 SLP128 DENSITY ALT 2400FT=
METAR CYEG 241500Z 15004KT 15SM FEW012 BKN024 09/06 A2987 RMK SC1SC6
SLP131=

TAF CYEG 241439Z 2415/2512 16005KT P6SM OVC020 TEMPO 2415/2418 BKN025
FM241800 15010KT P6SM BKN025
FM250000 15015KT P6SM SCT030
FM250300 15010KT P6SM SKC
FM250600 16008KT P6SM SKC TEMPO 2510/2512 2SM BR
RMK NXT FCST BY 241800Z=
Your time UTC time
Weather data provided by Environment Canada and NAV CANADA